createdAt,value
2018-08-20T00:00:11.097Z,13.33
2018-08-20T00:02:40.182Z,13.50
2018-08-20T00:05:09.426Z,10.40
2018-08-20T00:07:38.500Z,10.10
2018-08-20T00:10:10.204Z,13.33
2018-08-20T00:12:39.374Z,12.77
2018-08-20T00:15:08.581Z,15.27
2018-08-20T00:17:37.745Z,11.80
2018-08-20T00:20:08.069Z,16.23
2018-08-20T00:22:37.221Z,11.03
2018-08-20T00:25:16.650Z,11.70
2018-08-20T00:27:47.069Z,19.87
2018-08-20T00:30:19.417Z,11.23
2018-08-20T00:32:49.407Z,16.40
2018-08-20T00:35:20.161Z,13.37
2018-08-20T00:37:50.838Z,12.97
2018-08-20T00:40:20.924Z,12.83
2018-08-20T00:42:50.107Z,15.43
2018-08-20T00:45:19.331Z,11.80
2018-08-20T00:47:48.470Z,10.83
2018-08-20T00:50:17.733Z,16.77
2018-08-20T00:52:46.860Z,13.30
2018-08-20T00:55:16.002Z,13.20
2018-08-20T00:57:45.226Z,14.67
2018-08-20T01:00:14.365Z,13.73
2018-08-20T01:02:43.485Z,17.40
2018-08-20T01:05:12.634Z,16.33
2018-08-20T01:07:41.846Z,15.87
2018-08-20T01:10:11.086Z,12.57
2018-08-20T01:12:40.177Z,14.60
2018-08-20T01:15:09.351Z,15.63
2018-08-20T01:17:38.539Z,17.33
2018-08-20T01:20:08.104Z,16.13
2018-08-20T01:22:40.120Z,16.83
2018-08-20T01:25:09.226Z,15.40
2018-08-20T01:27:38.337Z,16.80
2018-08-20T01:30:07.593Z,28.97
2018-08-20T01:32:36.684Z,18.83
2018-08-20T01:35:20.130Z,17.77
2018-08-20T01:37:49.261Z,17.43
2018-08-20T01:40:18.410Z,17.57
2018-08-20T01:42:47.579Z,16.50
2018-08-20T01:45:16.701Z,18.27
2018-08-20T01:47:45.875Z,11.80
2018-08-20T01:50:15.062Z,15.73
2018-08-20T01:52:44.250Z,17.83
2018-08-20T01:55:13.389Z,22.10
2018-08-20T01:57:42.589Z,19.57
2018-08-20T02:00:11.930Z,15.47
2018-08-20T02:02:41.048Z,25.83
2018-08-20T02:05:10.556Z,22.10
2018-08-20T02:07:39.710Z,21.77
2018-08-20T02:10:08.859Z,19.23
2018-08-20T02:12:38.304Z,18.83
2018-08-20T02:15:07.424Z,19.57
2018-08-20T02:17:36.565Z,22.23
2018-08-20T02:20:06.187Z,24.77
2018-08-20T02:22:35.327Z,19.30
2018-08-20T02:25:04.792Z,17.43
2018-08-20T02:27:33.923Z,20.07
2018-08-20T02:30:03.102Z,16.30
2018-08-20T02:32:32.318Z,14.27
2018-08-20T02:35:01.475Z,17.00
2018-08-20T02:37:35.993Z,18.17
2018-08-20T02:40:07.458Z,20.90
2018-08-20T02:42:37.025Z,19.77
2018-08-20T02:45:09.099Z,15.47
2018-08-20T02:47:39.400Z,13.47
2018-08-20T02:50:09.157Z,14.93
2018-08-20T02:52:38.354Z,15.63
2018-08-20T02:55:07.918Z,18.80
2018-08-20T02:57:37.099Z,18.27
2018-08-20T03:00:09.385Z,21.13
2018-08-20T03:02:38.610Z,21.37
2018-08-20T03:05:08.710Z,18.87
2018-08-20T03:07:37.838Z,18.37
2018-08-20T03:10:09.687Z,15.60
2018-08-20T03:12:38.720Z,19.27
2018-08-20T03:15:09.232Z,21.03
2018-08-20T03:17:38.360Z,19.97
2018-08-20T03:20:07.971Z,20.33
2018-08-20T03:22:37.193Z,22.90
2018-08-20T03:25:07.134Z,16.97
2018-08-20T03:27:36.274Z,18.23
2018-08-20T03:30:07.216Z,18.73
2018-08-20T03:32:36.484Z,28.30
2018-08-20T03:35:07.785Z,22.10
2018-08-20T03:37:37.098Z,21.10
2018-08-20T03:40:08.991Z,20.00
2018-08-20T03:42:38.173Z,18.73
2018-08-20T03:45:08.706Z,19.40
2018-08-20T03:47:37.904Z,19.33
2018-08-20T03:50:10.436Z,17.83
2018-08-20T03:52:39.677Z,25.03
2018-08-20T03:55:08.804Z,18.47
2018-08-20T03:57:38.404Z,15.03
2018-08-20T04:00:09.780Z,16.37
2018-08-20T04:02:38.935Z,18.87
2018-08-20T04:05:08.173Z,19.27
2018-08-20T04:07:37.222Z,18.57
2018-08-20T04:10:06.380Z,19.03
2018-08-20T04:12:35.525Z,23.73
2018-08-20T04:15:04.796Z,16.60
2018-08-20T04:17:33.897Z,18.47
2018-08-20T04:20:03.105Z,20.57
2018-08-20T04:22:32.368Z,21.53
2018-08-20T04:25:01.487Z,20.37
2018-08-20T04:27:30.633Z,16.60
2018-08-20T04:29:59.768Z,20.80
2018-08-20T04:32:28.877Z,20.30
2018-08-20T04:34:58.043Z,20.87
2018-08-20T04:37:27.199Z,15.23
2018-08-20T04:39:56.364Z,25.37
2018-08-20T04:42:25.503Z,16.90
2018-08-20T04:44:54.651Z,17.50
2018-08-20T04:47:23.768Z,19.63
2018-08-20T04:49:52.947Z,18.47
2018-08-20T04:52:22.154Z,17.13
2018-08-20T04:54:51.636Z,17.80
2018-08-20T04:57:20.773Z,18.67
2018-08-20T04:59:49.899Z,20.43
2018-08-20T05:02:19.040Z,16.43
2018-08-20T05:04:48.237Z,19.93
2018-08-20T05:07:17.449Z,23.37
2018-08-20T05:09:46.633Z,21.53
2018-08-20T05:12:15.803Z,21.67
2018-08-20T05:14:44.930Z,26.97
2018-08-20T05:17:14.093Z,29.77
2018-08-20T05:19:43.274Z,18.90
2018-08-20T05:22:12.433Z,17.70
2018-08-20T05:24:41.582Z,14.53
2018-08-20T05:27:10.727Z,16.83
2018-08-20T05:29:39.895Z,25.50
2018-08-20T05:32:09.035Z,17.67
2018-08-20T05:34:38.176Z,20.27
2018-08-20T05:37:07.330Z,21.30
2018-08-20T05:39:36.473Z,17.80
2018-08-20T05:42:05.704Z,25.60
2018-08-20T05:44:34.916Z,20.37
2018-08-20T05:47:04.098Z,22.63
2018-08-20T05:49:33.255Z,20.80
2018-08-20T05:52:02.787Z,21.17
2018-08-20T05:54:31.949Z,22.93
2018-08-20T05:57:01.137Z,26.13
2018-08-20T05:59:30.258Z,14.63
2018-08-20T06:01:59.504Z,11.73
2018-08-20T06:04:28.656Z,14.03
2018-08-20T06:06:57.798Z,12.30
2018-08-20T06:09:26.990Z,15.60
2018-08-20T06:11:56.163Z,19.60
2018-08-20T06:14:25.351Z,10.73
2018-08-20T06:16:54.534Z,17.10
2018-08-20T06:19:23.847Z,15.97
2018-08-20T06:21:53.012Z,13.50
2018-08-20T06:24:22.397Z,13.17
2018-08-20T06:26:51.524Z,17.67
2018-08-20T06:29:20.666Z,16.00
2018-08-20T06:31:49.829Z,14.73
2018-08-20T06:34:18.987Z,14.53
2018-08-20T06:36:48.206Z,12.77
2018-08-20T06:39:17.453Z,14.63
2018-08-20T06:41:46.599Z,10.63
2018-08-20T06:44:15.757Z,15.60
2018-08-20T06:46:44.865Z,12.07
2018-08-20T06:49:14.057Z,17.43
2018-08-20T06:51:43.210Z,16.57
2018-08-20T06:54:12.437Z,22.37
2018-08-20T06:56:41.682Z,11.60
2018-08-20T06:59:10.846Z,14.60
2018-08-20T07:01:40.005Z,13.87
2018-08-20T07:04:09.599Z,18.30
2018-08-20T07:06:38.719Z,17.70
2018-08-20T07:09:08.704Z,10.20
2018-08-20T07:11:37.881Z,9.00
2018-08-20T07:14:07.013Z,13.57
2018-08-20T07:16:36.191Z,12.33
2018-08-20T07:19:05.371Z,12.83
2018-08-20T07:21:34.465Z,8.73
2018-08-20T07:24:03.612Z,12.00
2018-08-20T07:26:32.742Z,9.13
2018-08-20T07:29:01.868Z,14.40
2018-08-20T07:31:31.022Z,12.33
2018-08-20T07:34:00.145Z,8.50
2018-08-20T07:36:29.472Z,12.73
2018-08-20T07:38:58.716Z,8.73
2018-08-20T07:41:27.911Z,6.83
2018-08-20T07:43:57.122Z,4.77
2018-08-20T07:46:26.315Z,7.67
2018-08-20T07:48:56.015Z,5.53
2018-08-20T07:51:25.186Z,7.47
2018-08-20T07:53:54.397Z,9.77
2018-08-20T07:56:23.551Z,5.47
2018-08-20T07:58:52.711Z,6.63
2018-08-20T08:01:21.843Z,4.83
2018-08-20T08:03:51.049Z,6.60
2018-08-20T08:06:20.205Z,7.27
2018-08-20T08:08:49.425Z,8.03
2018-08-20T08:11:18.571Z,5.50
2018-08-20T08:13:47.711Z,7.10
2018-08-20T08:16:16.923Z,3.90
2018-08-20T08:18:46.060Z,3.87
2018-08-20T08:21:15.192Z,3.77
2018-08-20T08:23:44.325Z,7.40
2018-08-20T08:26:13.521Z,11.93
2018-08-20T08:28:42.698Z,6.33
2018-08-20T08:31:11.839Z,7.13
2018-08-20T08:33:40.963Z,7.30
2018-08-20T08:36:10.190Z,9.03
2018-08-20T08:38:39.344Z,6.10
2018-08-20T08:41:08.488Z,9.70
2018-08-20T08:43:37.581Z,5.67
2018-08-20T08:46:06.983Z,7.03
2018-08-20T08:48:36.111Z,7.70
2018-08-20T08:51:05.390Z,8.70
2018-08-20T08:53:34.574Z,6.00
2018-08-20T08:56:03.782Z,15.80
2018-08-20T08:58:32.949Z,7.27
2018-08-20T09:01:02.150Z,7.43
2018-08-20T09:03:32.184Z,9.00
2018-08-20T09:06:02.749Z,6.57
2018-08-20T09:08:32.015Z,10.90
2018-08-20T09:11:01.288Z,5.07
2018-08-20T09:13:30.477Z,7.13
2018-08-20T09:15:59.626Z,10.60
2018-08-20T09:18:28.735Z,5.10
2018-08-20T09:20:57.908Z,4.50
2018-08-20T09:23:27.081Z,9.00
2018-08-20T09:25:56.182Z,10.80
2018-08-20T09:28:25.405Z,16.53
2018-08-20T09:30:54.596Z,5.60
2018-08-20T09:33:23.818Z,6.83
2018-08-20T09:35:52.946Z,6.70
2018-08-20T09:38:22.199Z,7.90
2018-08-20T09:40:51.333Z,11.37
2018-08-20T09:43:20.452Z,13.90
2018-08-20T09:45:49.594Z,8.70
2018-08-20T09:48:18.710Z,9.87
2018-08-20T09:50:47.853Z,8.17
2018-08-20T09:53:17.035Z,6.40
2018-08-20T09:55:46.217Z,6.27
2018-08-20T09:58:15.298Z,9.07
2018-08-20T10:00:44.987Z,7.50
2018-08-20T10:03:14.157Z,4.90
2018-08-20T10:05:43.306Z,6.13
2018-08-20T10:08:12.454Z,7.80
2018-08-20T10:10:41.587Z,8.80
2018-08-20T10:13:10.837Z,16.83
2018-08-20T10:15:40.018Z,9.10
2018-08-20T10:18:09.180Z,6.90
2018-08-20T10:20:38.297Z,6.70
2018-08-20T10:23:07.411Z,6.73
2018-08-20T10:25:36.477Z,10.53
2018-08-20T10:28:05.771Z,8.57
2018-08-20T10:30:34.878Z,8.20
2018-08-20T10:33:04.178Z,5.67
2018-08-20T10:35:33.310Z,8.70
2018-08-20T10:38:02.414Z,4.80
2018-08-20T10:40:31.589Z,12.90
2018-08-20T10:43:00.680Z,12.10
2018-08-20T10:45:35.072Z,5.90
2018-08-20T10:48:04.201Z,5.13
2018-08-20T10:50:33.329Z,6.30
2018-08-20T10:53:02.476Z,4.30
2018-08-20T10:55:31.615Z,8.47
2018-08-20T10:58:00.756Z,5.40
2018-08-20T11:00:29.963Z,7.57
2018-08-20T11:02:59.130Z,4.13
2018-08-20T11:05:28.341Z,7.23
2018-08-20T11:07:57.490Z,6.80
2018-08-20T11:10:26.689Z,2.50
2018-08-20T11:12:55.849Z,2.27
2018-08-20T11:15:24.967Z,2.70
2018-08-20T11:17:54.157Z,2.80
2018-08-20T11:20:23.357Z,1.77
2018-08-20T11:22:52.523Z,1.70
2018-08-20T11:25:21.744Z,0.70
2018-08-20T11:27:50.837Z,5.30
2018-08-20T11:30:20.004Z,7.00
2018-08-20T11:32:49.060Z,4.27
2018-08-20T11:35:18.176Z,4.73
2018-08-20T11:37:47.346Z,2.60
2018-08-20T11:40:16.579Z,1.33
2018-08-20T11:42:45.704Z,1.87
2018-08-20T11:45:15.312Z,3.80
2018-08-20T11:47:44.850Z,4.27
2018-08-20T11:50:13.995Z,1.13
2018-08-20T11:52:43.209Z,1.67
2018-08-20T11:55:12.341Z,1.20
2018-08-20T11:57:41.528Z,3.47
2018-08-20T12:00:11.796Z,1.10
2018-08-20T12:02:41.147Z,4.67
2018-08-20T12:05:10.900Z,1.97
2018-08-20T12:07:40.164Z,1.77
2018-08-20T12:10:10.290Z,3.27
2018-08-20T12:12:40.366Z,1.30
2018-08-20T12:15:11.825Z,8.53
2018-08-20T12:17:41.729Z,2.30
2018-08-20T12:20:11.071Z,2.13
2018-08-20T12:22:40.979Z,5.50
2018-08-20T12:25:13.336Z,3.20
2018-08-20T12:27:42.616Z,5.40
2018-08-20T12:30:13.420Z,8.53
2018-08-20T12:32:42.967Z,5.13
2018-08-20T12:35:12.172Z,2.83
2018-08-20T12:37:41.942Z,4.40
2018-08-20T12:40:11.090Z,1.73
2018-08-20T12:42:40.237Z,3.60
2018-08-20T12:45:09.503Z,3.70
2018-08-20T12:47:38.742Z,1.97
2018-08-20T12:50:07.919Z,3.00
2018-08-20T12:52:37.331Z,10.80
2018-08-20T12:55:06.804Z,3.33
2018-08-20T12:57:36.204Z,3.07
2018-08-20T13:00:06.610Z,6.57
2018-08-20T13:02:35.801Z,9.00
2018-08-20T13:05:05.236Z,2.50
2018-08-20T13:07:34.415Z,1.30
2018-08-20T13:10:03.613Z,3.70
2018-08-20T13:12:32.739Z,5.83
2018-08-20T13:15:08.711Z,2.30
2018-08-20T13:17:37.906Z,8.17
2018-08-20T13:20:07.122Z,8.53
2018-08-20T13:22:36.287Z,1.80
2018-08-20T13:25:06.325Z,1.60
2018-08-20T13:27:35.826Z,2.50
2018-08-20T13:30:06.397Z,4.33
2018-08-20T13:32:35.537Z,6.10
2018-08-20T13:35:05.090Z,6.00
2018-08-20T13:37:34.226Z,5.50
2018-08-20T13:40:03.402Z,5.20
2018-08-20T13:42:32.584Z,5.87
2018-08-20T13:45:02.078Z,9.17
2018-08-20T13:47:37.980Z,4.83
2018-08-20T13:50:16.099Z,7.20
2018-08-20T13:52:48.118Z,6.03
2018-08-20T13:55:17.239Z,6.70
2018-08-20T13:57:48.591Z,7.23
2018-08-20T14:00:19.017Z,6.90
2018-08-20T14:02:48.202Z,13.57
2018-08-20T14:05:17.874Z,8.57
2018-08-20T14:07:47.597Z,12.07
2018-08-20T14:10:16.776Z,6.60
2018-08-20T14:12:46.010Z,10.00
2018-08-20T14:15:15.687Z,10.40
2018-08-20T14:17:44.979Z,10.10
2018-08-20T14:20:15.800Z,7.77
2018-08-20T14:22:45.596Z,9.57
2018-08-20T14:25:14.839Z,7.70
2018-08-20T14:27:43.964Z,10.10
2018-08-20T14:30:14.897Z,7.50
2018-08-20T14:32:44.500Z,8.63
2018-08-20T14:35:13.702Z,11.80
2018-08-20T14:37:42.862Z,9.37
2018-08-20T14:40:16.164Z,3.73
2018-08-20T14:42:45.724Z,5.00
2018-08-20T14:45:16.088Z,33.13
2018-08-20T14:47:46.012Z,4.30
2018-08-20T14:50:17.145Z,4.67
2018-08-20T14:52:46.396Z,10.30
2018-08-20T14:55:15.613Z,7.13
2018-08-20T14:57:44.764Z,9.60
2018-08-20T15:00:14.919Z,3.20
2018-08-20T15:02:44.098Z,4.27
2018-08-20T15:05:13.626Z,9.37
2018-08-20T15:07:42.820Z,3.13
2018-08-20T15:10:12.044Z,11.13
2018-08-20T15:12:41.240Z,5.20
2018-08-20T15:15:10.511Z,14.37
2018-08-20T15:17:39.661Z,5.63
2018-08-20T15:20:09.373Z,7.73
2018-08-20T15:22:39.101Z,8.70
2018-08-20T15:25:08.349Z,12.83
2018-08-20T15:27:37.577Z,7.53
2018-08-20T15:30:06.782Z,7.30
2018-08-20T15:32:36.014Z,4.33
2018-08-20T15:35:05.228Z,9.53
2018-08-20T15:37:34.361Z,10.57
2018-08-20T15:40:03.495Z,7.73
2018-08-20T15:42:32.697Z,11.83
2018-08-20T15:45:01.906Z,19.63
2018-08-20T15:47:31.123Z,16.23
2018-08-20T15:50:00.360Z,8.83
2018-08-20T15:52:29.714Z,8.80
2018-08-20T15:54:58.861Z,8.93
2018-08-20T15:57:28.029Z,4.10
2018-08-20T15:59:57.269Z,8.87
2018-08-20T16:02:26.395Z,7.00
2018-08-20T16:04:55.791Z,5.57
2018-08-20T16:07:24.928Z,21.73
2018-08-20T16:09:55.691Z,16.57
2018-08-20T16:12:24.896Z,6.93
2018-08-20T16:14:54.070Z,4.40
2018-08-20T16:17:23.241Z,8.90
2018-08-20T16:19:52.449Z,11.50
2018-08-20T16:22:21.600Z,11.03
2018-08-20T16:24:50.712Z,4.40
2018-08-20T16:27:19.817Z,9.60
2018-08-20T16:29:48.937Z,10.33
2018-08-20T16:32:18.086Z,18.10
2018-08-20T16:34:47.257Z,8.53
2018-08-20T16:37:16.398Z,10.43
2018-08-20T16:39:45.680Z,15.33
2018-08-20T16:42:14.795Z,15.17
2018-08-20T16:44:43.902Z,18.13
2018-08-20T16:47:13.051Z,8.63
2018-08-20T16:49:42.125Z,10.47
2018-08-20T16:52:11.287Z,8.80
2018-08-20T16:54:40.393Z,15.67
2018-08-20T16:57:10.399Z,13.83
2018-08-20T16:59:39.555Z,16.10
2018-08-20T17:02:15.290Z,5.97
2018-08-20T17:04:44.411Z,6.60
2018-08-20T17:07:13.615Z,6.00
2018-08-20T17:09:42.742Z,5.87
2018-08-20T17:12:11.839Z,10.07
2018-08-20T17:14:41.011Z,7.50
2018-08-20T17:17:10.140Z,7.20
2018-08-20T17:19:39.196Z,9.10
2018-08-20T17:22:08.357Z,6.77
2018-08-20T17:24:38.412Z,9.87
2018-08-20T17:27:07.526Z,9.50
2018-08-20T17:29:36.700Z,8.90
2018-08-20T17:32:07.070Z,5.37
2018-08-20T17:34:40.335Z,8.53
2018-08-20T17:37:09.548Z,9.30
2018-08-20T17:39:59.470Z,5.97
2018-08-20T17:42:29.979Z,5.87
2018-08-20T17:44:59.703Z,8.30
2018-08-20T17:47:29.534Z,5.33
2018-08-20T17:49:59.596Z,9.30
2018-08-20T17:52:35.671Z,4.50
2018-08-20T17:55:05.757Z,9.90
2018-08-20T17:57:34.859Z,7.13
2018-08-20T18:00:47.795Z,6.53
2018-08-20T18:03:24.363Z,4.83
2018-08-20T18:05:56.670Z,5.50
2018-08-20T18:08:26.936Z,8.07
2018-08-20T18:10:56.283Z,5.90
2018-08-20T18:13:46.233Z,6.70
2018-08-20T18:16:16.606Z,7.67
2018-08-20T18:18:47.246Z,6.63
2018-08-20T18:21:16.443Z,6.30
2018-08-20T18:23:45.629Z,4.53
2018-08-20T18:26:14.798Z,9.33
2018-08-20T18:28:52.608Z,5.20
2018-08-20T18:31:23.976Z,5.10
2018-08-20T18:33:53.183Z,4.40
2018-08-20T18:36:24.485Z,7.80
2018-08-20T18:39:00.522Z,2.93
2018-08-20T18:42:15.305Z,4.60
2018-08-20T18:44:46.414Z,8.60
2018-08-20T18:47:17.193Z,4.33
2018-08-20T18:49:52.571Z,8.57
2018-08-20T18:52:23.465Z,4.53
2018-08-20T18:54:54.794Z,4.50
2018-08-20T18:57:27.132Z,5.43
2018-08-20T18:59:59.466Z,4.83
2018-08-20T19:02:45.792Z,5.40
2018-08-20T19:05:16.371Z,6.00
2018-08-20T19:07:45.735Z,4.33
2018-08-20T19:10:25.094Z,4.37
2018-08-20T19:12:54.201Z,2.27
2018-08-20T19:15:36.887Z,3.67
2018-08-20T19:18:08.187Z,2.63
2018-08-20T19:20:37.384Z,4.50
2018-08-20T19:23:06.546Z,5.23
2018-08-20T19:25:35.658Z,7.73
2018-08-20T19:28:10.126Z,4.60
2018-08-20T19:30:39.287Z,6.20
2018-08-20T19:33:22.506Z,7.67
2018-08-20T19:35:52.048Z,3.23
2018-08-20T19:38:21.241Z,5.27
2018-08-20T19:41:03.558Z,2.87
2018-08-20T19:43:38.720Z,7.83
2018-08-20T19:46:07.890Z,5.47
2018-08-20T19:48:37.008Z,8.20
2018-08-20T19:51:08.735Z,10.73
2018-08-20T19:53:37.888Z,7.30
2018-08-20T19:56:13.500Z,7.40
2018-08-20T19:58:44.113Z,13.90
2018-08-20T20:01:17.171Z,5.20
2018-08-20T20:03:47.970Z,2.20
2018-08-20T20:06:17.466Z,2.97
2018-08-20T20:08:46.558Z,2.93
2018-08-20T20:11:22.889Z,3.57
2018-08-20T20:14:02.628Z,6.17
2018-08-20T20:16:39.487Z,8.50
2018-08-20T20:19:09.239Z,8.80
2018-08-20T20:21:38.727Z,3.03
2018-08-20T20:24:08.537Z,4.83
2018-08-20T20:26:37.652Z,4.10
2018-08-20T20:29:08.537Z,2.00
2018-08-20T20:31:38.731Z,5.33
2018-08-20T20:34:08.113Z,2.23
2018-08-20T20:36:37.281Z,6.37
2018-08-20T20:39:09.410Z,4.20
2018-08-20T20:41:38.637Z,7.33
2018-08-20T20:44:08.593Z,4.33
2018-08-20T20:46:37.730Z,4.90
2018-08-20T20:49:07.011Z,2.47
2018-08-20T20:51:36.154Z,4.07
2018-08-20T20:54:05.285Z,2.83
2018-08-20T20:56:34.404Z,6.33
2018-08-20T20:59:03.553Z,9.73
2018-08-20T21:01:32.718Z,10.60
2018-08-20T21:04:06.068Z,1.73
2018-08-20T21:06:38.507Z,3.57
2018-08-20T21:09:10.173Z,7.43
2018-08-20T21:11:39.323Z,2.17
2018-08-20T21:14:08.741Z,4.93
2018-08-20T21:16:37.836Z,2.20
2018-08-20T21:19:06.929Z,4.47
2018-08-20T21:21:36.095Z,2.20
2018-08-20T21:24:07.964Z,2.73
2018-08-20T21:26:37.149Z,7.17
2018-08-20T21:29:06.305Z,2.30
2018-08-20T21:31:42.511Z,5.13
2018-08-20T21:34:11.881Z,2.40
2018-08-20T21:36:41.047Z,2.60
2018-08-20T21:39:10.609Z,3.27
2018-08-20T21:41:39.778Z,1.37
2018-08-20T21:44:08.865Z,4.33
2018-08-20T21:46:38.023Z,7.23
2018-08-20T21:49:07.356Z,1.93
2018-08-20T21:51:42.598Z,2.60
2018-08-20T21:54:11.739Z,4.37
2018-08-20T21:56:51.464Z,1.27
2018-08-20T21:59:20.636Z,3.07
2018-08-20T22:01:49.825Z,3.20
2018-08-20T22:04:21.090Z,1.10
2018-08-20T22:06:50.714Z,1.80
2018-08-20T22:09:19.845Z,1.20
2018-08-20T22:11:49.063Z,2.17
2018-08-20T22:14:18.252Z,4.03
2018-08-20T22:16:47.455Z,9.07
2018-08-20T22:19:16.664Z,2.90
2018-08-20T22:21:45.777Z,5.37
2018-08-20T22:24:14.914Z,3.23
2018-08-20T22:26:49.304Z,1.10
2018-08-20T22:29:18.949Z,2.57
2018-08-20T22:31:53.384Z,2.73
2018-08-20T22:34:22.493Z,3.53
2018-08-20T22:36:55.990Z,7.03
2018-08-20T22:39:25.147Z,1.97
2018-08-20T22:41:54.283Z,2.43
2018-08-20T22:44:23.481Z,2.97
2018-08-20T22:46:52.655Z,3.07
2018-08-20T22:49:21.852Z,2.70
2018-08-20T22:51:51.013Z,6.47
2018-08-20T22:54:20.170Z,9.27
2018-08-20T22:56:49.346Z,1.70
2018-08-20T22:59:18.548Z,3.63
2018-08-20T23:01:47.735Z,3.03
2018-08-20T23:04:16.856Z,2.07
2018-08-20T23:06:45.993Z,4.50
2018-08-20T23:09:32.407Z,3.97
2018-08-20T23:12:01.558Z,3.37
2018-08-20T23:14:30.711Z,1.63
2018-08-20T23:16:59.900Z,1.20
2018-08-20T23:19:31.632Z,2.50
2018-08-20T23:22:00.909Z,1.67
2018-08-20T23:24:30.049Z,3.17
2018-08-20T23:26:59.207Z,1.90
2018-08-20T23:29:28.352Z,3.20
2018-08-20T23:31:57.546Z,3.33
2018-08-20T23:34:26.732Z,1.77
2018-08-20T23:36:55.897Z,1.93
2018-08-20T23:39:25.090Z,5.40
2018-08-20T23:41:54.216Z,1.60
2018-08-20T23:44:23.346Z,4.43
2018-08-20T23:46:52.473Z,1.83
2018-08-20T23:49:21.662Z,3.80
2018-08-20T23:51:50.839Z,1.60
2018-08-20T23:54:20.016Z,2.50
2018-08-20T23:56:49.151Z,1.83
2018-08-20T23:59:18.300Z,4.30
